createdAt,value
2019-06-20T00:03:01.382Z,1.93
2019-06-20T00:08:10.058Z,1.96
2019-06-20T00:13:18.629Z,1.75
2019-06-20T00:18:27.348Z,1.71
2019-06-20T00:23:35.889Z,1.42
2019-06-20T00:28:44.516Z,1.49
2019-06-20T00:33:53.124Z,1.44
2019-06-20T00:39:01.838Z,1.71
2019-06-20T00:44:10.340Z,1.46
2019-06-20T00:49:18.917Z,1.38
2019-06-20T00:54:27.478Z,1.40
2019-06-20T00:59:36.085Z,1.36
2019-06-20T01:04:44.694Z,1.28
2019-06-20T01:09:53.321Z,1.49
2019-06-20T01:15:01.965Z,1.40
2019-06-20T01:20:10.598Z,1.33
2019-06-20T01:25:19.194Z,1.21
2019-06-20T01:30:27.793Z,1.38
2019-06-20T01:35:38.637Z,1.28
2019-06-20T01:40:37.254Z,1.47
2019-06-20T01:45:45.799Z,1.50
2019-06-20T01:50:54.406Z,1.36
2019-06-20T01:56:02.963Z,1.30
2019-06-20T02:01:11.539Z,1.55
2019-06-20T02:06:20.121Z,1.52
2019-06-20T02:11:28.774Z,1.26
2019-06-20T02:16:37.303Z,1.28
2019-06-20T02:21:45.922Z,1.34
2019-06-20T02:26:54.533Z,1.35
2019-06-20T02:32:03.104Z,1.28
2019-06-20T02:37:11.694Z,1.41
2019-06-20T02:42:20.316Z,1.39
2019-06-20T02:47:28.873Z,1.43
2019-06-20T02:52:39.454Z,1.31
2019-06-20T02:57:38.004Z,1.38
2019-06-20T03:02:46.609Z,1.24
2019-06-20T03:07:55.168Z,1.18
2019-06-20T03:13:03.746Z,1.39
2019-06-20T03:18:12.330Z,1.38
2019-06-20T03:23:20.957Z,1.42
2019-06-20T03:28:29.589Z,1.28
2019-06-20T03:33:38.186Z,1.55
2019-06-20T03:38:46.762Z,1.64
2019-06-20T03:43:58.829Z,1.68
2019-06-20T03:49:03.425Z,2.18
2019-06-20T03:54:12.063Z,2.30
2019-06-20T03:59:20.645Z,1.94
2019-06-20T04:04:29.283Z,1.95
2019-06-20T04:09:37.814Z,1.49
2019-06-20T04:14:48.963Z,1.43
2019-06-20T04:19:54.613Z,1.68
2019-06-20T04:25:03.218Z,1.49
2019-06-20T04:30:11.789Z,1.63
2019-06-20T04:35:20.525Z,1.68
2019-06-20T04:40:29.038Z,1.54
2019-06-20T04:45:37.637Z,2.36
2019-06-20T04:50:46.217Z,1.56
2019-06-20T04:55:54.844Z,1.82
2019-06-20T05:01:03.397Z,1.78
2019-06-20T05:11:20.673Z,2.32
2019-06-20T05:16:29.207Z,1.68
2019-06-20T05:21:37.771Z,1.37
2019-06-20T05:26:46.396Z,1.39
2019-06-20T05:31:54.970Z,1.58
2019-06-20T05:37:03.595Z,1.37
2019-06-20T05:42:12.164Z,1.33
2019-06-20T05:47:20.706Z,1.74
2019-06-20T05:52:29.265Z,1.27
2019-06-20T05:57:38.048Z,1.47
2019-06-20T06:02:46.532Z,1.41
2019-06-20T06:07:55.125Z,1.39
2019-06-20T06:13:19.159Z,1.43
2019-06-20T06:18:07.653Z,1.31
2019-06-20T06:23:16.242Z,2.09
2019-06-20T06:28:24.775Z,1.91
2019-06-20T06:33:33.276Z,1.23
2019-06-20T06:38:41.841Z,1.28
2019-06-20T06:43:50.369Z,1.40
2019-06-20T06:48:58.913Z,1.46
2019-06-20T06:54:07.417Z,1.50
2019-06-20T06:59:15.938Z,1.47
2019-06-20T07:04:24.447Z,1.87
2019-06-20T07:09:35.434Z,1.56
2019-06-20T07:14:42.825Z,1.60
2019-06-20T07:19:49.168Z,1.64
2019-06-20T07:24:57.728Z,1.60
2019-06-20T07:30:06.290Z,1.65
2019-06-20T07:35:14.789Z,1.34
2019-06-20T07:40:23.389Z,1.36
2019-06-20T07:45:31.891Z,1.14
2019-06-20T07:50:40.491Z,1.21
2019-06-20T07:55:48.993Z,1.34
2019-06-20T08:00:57.513Z,1.31
2019-06-20T08:06:06.035Z,1.75
2019-06-20T08:11:14.634Z,1.49
2019-06-20T08:16:23.141Z,1.33
2019-06-20T08:21:31.736Z,1.33
2019-06-20T08:26:40.346Z,1.16
2019-06-20T08:31:48.925Z,0.94
2019-06-20T08:36:58.830Z,1.17
2019-06-20T08:42:06.392Z,1.05
2019-06-20T08:47:13.614Z,0.97
2019-06-20T08:52:22.190Z,0.97
2019-06-20T08:57:30.688Z,1.39
2019-06-20T09:02:39.303Z,1.12
2019-06-20T09:07:47.837Z,0.93
2019-06-20T09:12:57.048Z,0.98
2019-06-20T09:18:04.405Z,1.03
2019-06-20T09:23:13.015Z,1.08
2019-06-20T09:28:21.603Z,1.20
2019-06-20T09:33:30.106Z,1.16
2019-06-20T09:38:38.654Z,1.43
2019-06-20T09:43:47.314Z,1.23
2019-06-20T09:48:55.930Z,1.34
2019-06-20T09:54:04.532Z,1.38
2019-06-20T09:59:26.861Z,1.01
2019-06-20T10:04:21.689Z,1.27
2019-06-20T10:09:29.216Z,1.26
2019-06-20T10:14:37.815Z,1.39
2019-06-20T10:19:47.298Z,0.82
2019-06-20T10:24:54.469Z,0.84
2019-06-20T10:30:13.826Z,0.85
2019-06-20T10:35:11.029Z,0.83
2019-06-20T10:40:19.535Z,1.00
2019-06-20T10:45:28.028Z,0.90
2019-06-20T10:50:36.537Z,0.90
2019-06-20T10:55:45.089Z,0.84
2019-06-20T11:00:53.588Z,0.71
2019-06-20T11:06:02.193Z,0.98
2019-06-20T11:11:13.449Z,0.96
2019-06-20T11:16:18.797Z,0.91
2019-06-20T11:21:27.325Z,0.80
2019-06-20T11:26:37.750Z,0.95
2019-06-20T11:31:46.335Z,0.99
2019-06-20T11:36:52.093Z,0.89
2019-06-20T11:42:00.683Z,0.95
2019-06-20T11:47:09.225Z,0.91
2019-06-20T11:52:17.738Z,0.93
2019-06-20T11:57:26.266Z,0.93
2019-06-20T12:02:34.777Z,1.13
2019-06-20T12:07:45.031Z,0.97
2019-06-20T12:12:51.446Z,0.80
2019-06-20T12:17:59.954Z,0.90
2019-06-20T12:23:08.497Z,0.92
2019-06-20T12:28:17.070Z,0.68
2019-06-20T12:33:25.579Z,0.72
2019-06-20T12:38:34.102Z,1.12
2019-06-20T12:43:42.618Z,1.00
2019-06-20T12:48:51.233Z,1.03
2019-06-20T12:53:59.774Z,1.06
2019-06-20T12:59:08.302Z,0.84
2019-06-20T13:04:16.814Z,0.94
2019-06-20T13:09:25.418Z,0.83
2019-06-20T13:14:33.928Z,0.79
2019-06-20T13:19:42.442Z,0.66
2019-06-20T13:24:50.945Z,0.74
2019-06-20T13:29:59.557Z,0.89
2019-06-20T13:35:08.042Z,0.93
2019-06-20T13:40:16.581Z,1.15
2019-06-20T13:45:25.095Z,0.96
2019-06-20T13:50:33.617Z,1.11
2019-06-20T13:55:42.896Z,1.39
2019-06-20T14:00:50.966Z,1.09
2019-06-20T14:05:58.281Z,1.04
2019-06-20T14:11:06.805Z,1.18
2019-06-20T14:16:15.332Z,0.81
2019-06-20T14:21:23.875Z,0.93
2019-06-20T14:26:32.382Z,0.88
2019-06-20T14:31:40.921Z,0.80
2019-06-20T14:36:50.626Z,0.79
2019-06-20T14:41:57.537Z,0.96
2019-06-20T14:47:06.391Z,0.67
2019-06-20T14:52:14.893Z,0.58
2019-06-20T14:57:23.407Z,0.59
2019-06-20T15:02:38.397Z,0.47
2019-06-20T15:07:40.001Z,0.70
2019-06-20T15:12:49.850Z,0.74
2019-06-20T15:17:58.251Z,0.58
2019-06-20T15:23:04.724Z,0.45
2019-06-20T15:28:13.225Z,0.61
2019-06-20T15:33:21.783Z,0.66
2019-06-20T15:38:30.300Z,0.55
2019-06-20T15:43:38.929Z,0.73
2019-06-20T15:48:47.443Z,0.79
2019-06-20T15:53:56.022Z,0.63
2019-06-20T15:59:04.566Z,0.66
2019-06-20T16:04:13.179Z,0.73
2019-06-20T16:09:21.703Z,0.72
2019-06-20T16:14:30.264Z,1.02
2019-06-20T16:19:38.737Z,5.53
2019-06-20T16:24:47.297Z,1.09
2019-06-20T16:29:55.882Z,1.00
2019-06-20T16:35:04.438Z,0.82
2019-06-20T16:40:12.915Z,1.09
2019-06-20T16:45:21.522Z,0.74
2019-06-20T16:50:30.051Z,0.80
2019-06-20T16:55:38.644Z,1.08
2019-06-20T17:00:47.185Z,0.89
2019-06-20T17:05:55.792Z,1.12
2019-06-20T17:11:04.302Z,1.03
2019-06-20T17:16:12.924Z,0.80
2019-06-20T17:21:21.361Z,1.49
2019-06-20T17:26:30.155Z,1.04
2019-06-20T17:31:38.577Z,0.92
2019-06-20T17:36:47.165Z,0.94
2019-06-20T17:41:55.917Z,0.84
2019-06-20T17:47:04.284Z,0.91
2019-06-20T17:52:12.842Z,1.01
2019-06-20T17:57:21.438Z,0.86
2019-06-20T18:02:29.913Z,0.92
2019-06-20T18:07:38.434Z,0.92
2019-06-20T18:12:46.931Z,0.99
2019-06-20T18:17:55.538Z,0.87
2019-06-20T18:23:04.191Z,1.45
2019-06-20T18:28:12.902Z,1.22
2019-06-20T18:33:21.436Z,1.06
2019-06-20T18:38:30.028Z,0.97
2019-06-20T18:43:38.570Z,1.03
2019-06-20T18:48:47.176Z,1.03
2019-06-20T18:53:55.649Z,1.31
2019-06-20T18:59:04.189Z,1.23
2019-06-20T19:04:12.727Z,1.13
2019-06-20T19:09:21.289Z,0.88
2019-06-20T19:14:29.808Z,0.93
2019-06-20T19:19:38.414Z,1.08
2019-06-20T19:24:46.937Z,1.05
2019-06-20T19:29:55.521Z,1.16
2019-06-20T19:35:04.051Z,1.72
2019-06-20T19:40:12.570Z,1.27
2019-06-20T19:45:21.073Z,1.16
2019-06-20T19:50:29.601Z,1.33
2019-06-20T19:55:38.136Z,1.44
2019-06-20T20:00:46.763Z,1.21
2019-06-20T20:05:58.171Z,1.08
2019-06-20T20:11:03.350Z,1.47
2019-06-20T20:16:11.878Z,2.24
2019-06-20T20:21:20.403Z,1.16
2019-06-20T20:26:28.926Z,1.09
2019-06-20T20:31:37.533Z,1.24
2019-06-20T20:36:46.048Z,1.29
2019-06-20T20:41:54.613Z,1.69
2019-06-20T20:47:03.138Z,1.38
2019-06-20T20:52:11.750Z,1.35
2019-06-20T20:57:20.245Z,1.14
2019-06-20T21:02:28.849Z,1.34
2019-06-20T21:07:39.253Z,3.12
2019-06-20T21:12:45.569Z,11.07
2019-06-20T21:17:55.760Z,37.82
2019-06-20T21:23:02.245Z,80.96
2019-06-20T21:28:10.753Z,39.40
2019-06-20T21:33:19.283Z,14.64
2019-06-20T21:43:36.453Z,1.31
2019-06-20T21:48:44.997Z,1.70
2019-06-20T21:53:53.563Z,1.74
2019-06-20T21:59:02.061Z,1.92
2019-06-20T22:04:10.641Z,1.46
2019-06-20T22:09:19.157Z,1.43
2019-06-20T22:14:27.691Z,1.60
2019-06-20T22:19:36.216Z,2.03
2019-06-20T22:24:44.779Z,1.95
2019-06-20T22:29:53.338Z,1.87
2019-06-20T22:35:01.930Z,2.15
2019-06-20T22:40:10.485Z,2.11
2019-06-20T22:45:19.093Z,1.69
2019-06-20T22:50:27.619Z,1.82
2019-06-20T22:55:36.229Z,1.54
2019-06-20T23:00:44.797Z,1.44
2019-06-20T23:05:53.414Z,1.71
2019-06-20T23:11:02.007Z,1.32
2019-06-20T23:16:10.674Z,1.19
2019-06-20T23:21:19.320Z,1.33
2019-06-20T23:26:27.941Z,2.08
2019-06-20T23:31:36.499Z,1.14
2019-06-20T23:36:45.152Z,1.17
2019-06-20T23:41:53.727Z,1.28
2019-06-20T23:47:02.285Z,15.07
2019-06-20T23:52:10.844Z,12.13
2019-06-20T23:57:19.468Z,6.07
